Time;durP1;ratioP1;P1;durP2;ratioP2;P2;SDS_P1;SDS_P2;PMS_P1;PMS_P2;Temp;Humidity;BMP_temperature;BMP_pressure;BME280_temperature;BME280_humidity;BME280_pressure;Samples;Min_cycle;Max_cycle;Signal;HPM_P1;HPM_P2
2023/07/13 00:00:38;;;;;;;7.70;6.27;;;18.80;99.90;;;;;;5082918;28;20172;-47
2023/07/13 00:03:05;;;;;;;5.70;4.93;;;18.80;99.90;;;;;;5082556;28;20179;-43
2023/07/13 00:05:31;;;;;;;6.77;5.97;;;18.60;99.90;;;;;;5082222;28;20171;-45
2023/07/13 00:07:57;;;;;;;6.07;5.47;;;18.60;99.90;;;;;;5100125;28;20152;-44
2023/07/13 00:10:23;;;;;;;5.27;3.83;;;18.70;99.90;;;;;;5081936;28;20452;-48
2023/07/13 00:12:49;;;;;;;5.30;4.47;;;18.80;99.90;;;;;;5082355;28;20179;-43
2023/07/13 00:15:24;;;;;;;4.63;4.23;;;18.80;99.90;;;;;;5082704;28;20279;-50
2023/07/13 00:17:53;;;;;;;5.83;4.47;;;18.90;99.90;;;;;;5082333;28;20210;-43
2023/07/13 00:20:24;;;;;;;7.27;4.90;;;18.90;99.90;;;;;;5082493;28;20169;-45
2023/07/13 00:22:52;;;;;;;6.03;5.13;;;18.90;99.90;;;;;;5100127;28;20174;-44
2023/07/13 00:25:18;;;;;;;6.00;5.27;;;18.80;99.90;;;;;;5083007;28;20536;-44
2023/07/13 00:27:44;;;;;;;6.40;5.80;;;18.80;99.90;;;;;;5100536;28;20226;-44
2023/07/13 00:30:11;;;;;;;7.10;5.73;;;18.70;99.90;;;;;;5069092;28;20271;-44
2023/07/13 00:32:38;;;;;;;6.10;5.50;;;18.70;99.90;;;;;;5062097;28;20175;-43
2023/07/13 00:35:04;;;;;;;6.20;5.60;;;18.70;99.90;;;;;;5079787;28;20196;-43
2023/07/13 00:37:30;;;;;;;7.83;6.93;;;18.60;99.90;;;;;;5079060;28;20378;-45
2023/07/13 00:39:55;;;;;;;7.00;6.33;;;18.60;99.90;;;;;;5078840;28;20169;-44
2023/07/13 00:42:21;;;;;;;9.23;8.50;;;18.60;99.90;;;;;;5078291;28;20172;-44
2023/07/13 00:45:13;;;;;;;10.10;9.20;;;18.50;99.90;;;;;;5077731;28;20541;-43
2023/07/13 00:47:43;;;;;;;8.80;8.07;;;18.50;99.90;;;;;;5060542;28;20759;-44
2023/07/13 00:50:14;;;;;;;12.50;11.50;;;18.40;99.90;;;;;;5061140;28;20171;-44
2023/07/13 00:52:46;;;;;;;9.37;8.67;;;18.40;99.90;;;;;;5061851;28;20211;-46
2023/07/13 00:55:13;;;;;;;10.90;10.07;;;18.30;99.90;;;;;;5060823;28;20417;-44
2023/07/13 00:57:41;;;;;;;12.00;11.23;;;18.30;99.90;;;;;;5061663;28;20188;-46
2023/07/13 01:00:08;;;;;;;14.20;12.97;;;18.20;99.90;;;;;;5060990;28;20164;-45
2023/07/13 01:02:37;;;;;;;10.73;9.83;;;18.20;99.90;;;;;;5079167;28;20168;-45
2023/07/13 01:05:10;;;;;;;6.60;6.07;;;18.10;99.90;;;;;;5061701;28;20270;-44
2023/07/13 01:07:36;;;;;;;6.17;5.67;;;18.10;99.90;;;;;;5061731;28;20177;-46
2023/07/13 01:10:02;;;;;;;6.83;5.73;;;18.10;99.90;;;;;;5078978;28;20293;-45
2023/07/13 01:12:28;;;;;;;11.10;6.00;;;18.10;99.90;;;;;;5061884;28;20177;-49
2023/07/13 01:15:00;;;;;;;10.67;9.80;;;18.10;99.90;;;;;;5062010;28;20255;-47
2023/07/13 01:17:26;;;;;;;13.53;12.73;;;18.10;99.90;;;;;;5060404;28;20220;-46
2023/07/13 01:19:53;;;;;;;13.30;12.37;;;18.00;99.90;;;;;;5061221;28;20165;-45
2023/07/13 01:22:19;;;;;;;18.57;13.30;;;18.00;99.90;;;;;;5078769;28;20423;-46
2023/07/13 01:24:47;;;;;;;13.53;12.60;;;18.00;99.90;;;;;;5078745;28;20556;-48
2023/07/13 01:27:15;;;;;;;11.13;10.20;;;17.90;99.90;;;;;;5078693;28;20183;-44
2023/07/13 01:29:42;;;;;;;8.07;7.47;;;17.90;99.90;;;;;;5061169;28;20236;-43
2023/07/13 01:32:11;;;;;;;7.63;7.13;;;17.80;99.90;;;;;;5078649;28;20522;-44
2023/07/13 01:34:37;;;;;;;6.60;5.43;;;17.90;99.90;;;;;;5078745;28;20169;-44
2023/07/13 01:37:06;;;;;;;7.97;4.70;;;17.80;99.90;;;;;;5060707;28;20212;-44
2023/07/13 01:39:31;;;;;;;10.40;4.90;;;17.80;99.90;;;;;;5061314;28;20481;-44
2023/07/13 01:41:57;;;;;;;6.63;4.63;;;17.80;99.90;;;;;;5060864;28;20168;-43
2023/07/13 01:44:27;;;;;;;4.70;3.20;;;17.80;99.90;;;;;;5061044;28;20168;-46
2023/07/13 01:46:53;;;;;;;6.10;5.70;;;17.70;99.90;;;;;;5078306;28;20537;-44
2023/07/13 01:49:18;;;;;;;10.90;8.37;;;17.70;99.90;;;;;;5060814;28;20207;-46
2023/07/13 01:51:44;;;;;;;17.87;16.57;;;17.70;99.90;;;;;;5078823;28;20179;-47
2023/07/13 01:54:10;;;;;;;17.77;16.57;;;17.70;99.90;;;;;;5061374;28;20180;-44
2023/07/13 01:56:35;;;;;;;18.40;17.17;;;17.80;99.90;;;;;;5078563;28;20153;-43
2023/07/13 01:59:01;;;;;;;16.80;15.73;;;17.80;99.90;;;;;;5061411;28;20176;-47
2023/07/13 02:01:26;;;;;;;17.23;15.87;;;17.80;99.90;;;;;;5061690;28;20172;-46
2023/07/13 02:03:53;;;;;;;16.30;15.30;;;17.80;99.90;;;;;;5061227;28;20172;-44
2023/07/13 02:06:19;;;;;;;15.50;14.43;;;17.90;99.90;;;;;;5061497;28;20180;-46
2023/07/13 02:08:44;;;;;;;11.83;10.83;;;17.90;99.90;;;;;;5077468;28;20180;-44
2023/07/13 02:11:10;;;;;;;7.80;7.00;;;17.90;99.90;;;;;;5078234;28;20157;-44
2023/07/13 02:13:36;;;;;;;10.63;9.77;;;17.80;99.90;;;;;;5060633;28;20180;-47
2023/07/13 02:16:02;;;;;;;7.63;7.10;;;17.70;99.90;;;;;;5060560;28;20239;-45
2023/07/13 02:18:27;;;;;;;10.27;9.43;;;17.70;99.90;;;;;;5060819;28;20310;-45
2023/07/13 02:20:53;;;;;;;11.53;10.57;;;17.60;99.90;;;;;;5060722;28;20177;-44
2023/07/13 02:23:19;;;;;;;17.57;16.37;;;17.60;99.90;;;;;;5060767;28;20169;-45
2023/07/13 02:25:45;;;;;;;17.40;16.27;;;17.60;99.90;;;;;;5077854;28;20177;-44
2023/07/13 02:28:11;;;;;;;16.97;15.47;;;17.60;99.90;;;;;;5060771;28;20564;-44
2023/07/13 02:30:36;;;;;;;14.60;13.57;;;17.50;99.90;;;;;;5077524;28;20322;-43
2023/07/13 02:33:02;;;;;;;18.60;17.23;;;17.60;99.90;;;;;;5080448;28;20195;-44
2023/07/13 02:35:27;;;;;;;15.10;14.10;;;17.50;99.90;;;;;;5080552;28;20625;-44
2023/07/13 02:37:53;;;;;;;19.70;18.50;;;17.50;99.90;;;;;;5080671;28;20283;-44
2023/07/13 02:40:19;;;;;;;16.67;15.57;;;17.50;99.90;;;;;;5081024;28;20174;-44
2023/07/13 02:42:44;;;;;;;16.43;15.43;;;17.50;99.90;;;;;;5098186;28;20152;-46
2023/07/13 02:45:10;;;;;;;10.83;10.00;;;17.50;99.90;;;;;;5098284;28;20179;-43
2023/07/13 02:47:36;;;;;;;16.43;15.33;;;17.50;99.90;;;;;;5081298;28;20616;-43
2023/07/13 02:50:02;;;;;;;12.00;11.10;;;17.50;99.90;;;;;;5080886;28;20172;-44
2023/07/13 02:52:28;;;;;;;13.23;12.10;;;17.40;99.90;;;;;;5098875;28;20211;-44
2023/07/13 02:54:53;;;;;;;16.47;15.47;;;17.40;99.90;;;;;;5098664;28;20161;-44
2023/07/13 02:57:19;;;;;;;10.23;9.43;;;17.40;99.90;;;;;;5098287;28;20192;-46
2023/07/13 02:59:44;;;;;;;11.67;10.57;;;17.40;99.90;;;;;;5080770;28;20692;-45
2023/07/13 03:02:10;;;;;;;9.27;7.73;;;17.40;99.90;;;;;;5080535;28;20164;-45
2023/07/13 03:04:41;;;;;;;7.67;6.90;;;17.40;99.90;;;;;;5080826;28;20161;-44
2023/07/13 03:07:07;;;;;;;11.47;8.33;;;17.30;99.90;;;;;;5079594;28;20449;-45
2023/07/13 03:09:34;;;;;;;9.23;8.17;;;17.30;99.90;;;;;;5079506;28;20567;-43
2023/07/13 03:11:59;;;;;;;10.30;9.50;;;17.30;99.90;;;;;;5096459;28;20502;-46
2023/07/13 03:14:25;;;;;;;9.00;8.00;;;17.30;99.90;;;;;;5079300;28;20618;-43
2023/07/13 03:16:51;;;;;;;9.33;8.37;;;17.30;99.90;;;;;;5079586;28;20169;-45
2023/07/13 03:19:17;;;;;;;7.73;7.03;;;17.40;99.90;;;;;;5081423;28;20203;-45
2023/07/13 03:21:43;;;;;;;6.87;5.67;;;17.40;99.90;;;;;;5101181;28;20196;-45
2023/07/13 03:24:09;;;;;;;10.30;4.93;;;17.30;99.90;;;;;;5100690;28;20184;-44
2023/07/13 03:26:34;;;;;;;6.20;5.47;;;17.30;99.90;;;;;;5100254;28;20153;-44
2023/07/13 03:29:00;;;;;;;8.70;5.17;;;17.30;99.90;;;;;;5079261;28;20224;-43
2023/07/13 03:31:29;;;;;;;6.13;4.87;;;17.30;99.90;;;;;;5062103;28;20480;-43
2023/07/13 03:33:57;;;;;;;5.67;4.83;;;17.30;99.90;;;;;;5062759;28;20183;-45
2023/07/13 03:36:26;;;;;;;6.80;5.77;;;17.30;99.90;;;;;;5062938;28;20180;-49
2023/07/13 03:38:54;;;;;;;9.60;6.33;;;17.30;99.90;;;;;;5080404;28;20755;-44
2023/07/13 03:41:21;;;;;;;6.33;5.23;;;17.30;99.90;;;;;;5062997;28;20165;-44
2023/07/13 03:43:48;;;;;;;5.63;5.17;;;17.30;99.90;;;;;;5063348;28;20171;-44
2023/07/13 03:46:13;;;;;;;5.83;5.23;;;17.40;99.90;;;;;;5062882;28;20165;-45
2023/07/13 03:48:40;;;;;;;6.67;6.07;;;17.40;99.90;;;;;;5063195;28;20187;-44
2023/07/13 03:51:06;;;;;;;8.23;5.43;;;17.30;99.90;;;;;;5063321;28;20279;-46
2023/07/13 03:53:32;;;;;;;7.97;5.60;;;17.30;99.90;;;;;;5081197;28;20184;-44
2023/07/13 03:55:57;;;;;;;6.53;5.83;;;17.30;99.90;;;;;;5062733;28;20206;-46
2023/07/13 03:58:35;;;;;;;8.60;7.87;;;17.40;99.90;;;;;;5062131;28;20262;-48
2023/07/13 04:01:02;;;;;;;9.40;8.50;;;17.30;99.90;;;;;;5062473;28;20161;-44
2023/07/13 04:03:29;;;;;;;8.57;7.70;;;17.20;99.90;;;;;;5078918;28;20504;-44
2023/07/13 04:05:59;;;;;;;8.03;7.27;;;17.30;99.90;;;;;;5056878;28;20212;-45
2023/07/13 04:08:29;;;;;;;7.20;6.60;;;17.30;99.90;;;;;;5056133;28;20283;-47
2023/07/13 04:10:56;;;;;;;9.00;7.10;;;17.20;99.90;;;;;;5056228;28;20180;-44
2023/07/13 04:13:22;;;;;;;10.63;6.03;;;17.30;99.90;;;;;;5072296;28;20168;-44
2023/07/13 04:15:48;;;;;;;8.67;5.80;;;17.20;99.90;;;;;;5072938;28;20177;-46
2023/07/13 04:18:13;;;;;;;7.57;5.67;;;17.30;99.90;;;;;;5054965;28;20265;-43
2023/07/13 04:20:39;;;;;;;6.37;5.07;;;17.20;99.90;;;;;;5058737;28;20564;-44
2023/07/13 04:23:04;;;;;;;8.23;6.10;;;17.20;99.90;;;;;;5078907;28;20255;-47
2023/07/13 04:25:30;;;;;;;7.53;5.77;;;17.30;99.90;;;;;;5078500;28;20177;-43
2023/07/13 04:27:56;;;;;;;5.70;5.27;;;17.20;99.90;;;;;;5061175;28;20208;-46
2023/07/13 04:30:21;;;;;;;6.23;5.43;;;17.20;99.90;;;;;;5058929;28;20374;-45
2023/07/13 04:32:48;;;;;;;10.17;6.17;;;17.20;99.90;;;;;;5060839;28;20850;-44
2023/07/13 04:35:14;;;;;;;7.90;7.20;;;17.20;99.90;;;;;;5061294;28;20231;-46
2023/07/13 04:37:40;;;;;;;12.03;7.50;;;17.20;99.90;;;;;;5079220;28;20188;-48
2023/07/13 04:40:06;;;;;;;8.57;7.17;;;17.20;99.90;;;;;;5061337;28;20260;-44
2023/07/13 04:42:34;;;;;;;8.27;7.67;;;17.20;99.90;;;;;;5079839;28;20173;-44
2023/07/13 04:45:00;;;;;;;8.17;7.43;;;17.30;99.90;;;;;;5062419;28;20169;-44
2023/07/13 04:47:25;;;;;;;8.70;6.93;;;17.30;99.90;;;;;;5061988;28;20183;-43
2023/07/13 04:49:51;;;;;;;8.80;6.80;;;17.30;99.90;;;;;;5061653;28;20213;-48
2023/07/13 04:52:16;;;;;;;6.17;5.57;;;17.30;99.90;;;;;;5061063;28;20220;-44
2023/07/13 04:54:42;;;;;;;6.77;6.07;;;17.30;99.90;;;;;;5060437;28;20180;-46
2023/07/13 04:57:08;;;;;;;5.20;4.73;;;17.40;99.90;;;;;;5059896;28;20686;-46
2023/07/13 04:59:34;;;;;;;6.37;5.77;;;17.40;99.90;;;;;;5059641;28;20241;-44
2023/07/13 05:02:01;;;;;;;8.03;5.30;;;17.40;99.90;;;;;;5058770;28;20175;-45
2023/07/13 05:04:27;;;;;;;12.57;6.30;;;17.50;99.90;;;;;;5058686;28;20532;-44
2023/07/13 05:06:52;;;;;;;8.20;6.73;;;17.50;99.90;;;;;;5057333;28;20226;-46
2023/07/13 05:09:18;;;;;;;9.17;6.03;;;17.50;99.90;;;;;;5058377;28;20234;-45
2023/07/13 05:11:44;;;;;;;9.73;6.60;;;17.50;99.90;;;;;;5057901;28;20164;-47
2023/07/13 05:14:09;;;;;;;10.10;6.47;;;17.60;99.90;;;;;;5058215;28;20177;-45
2023/07/13 05:16:36;;;;;;;9.93;6.77;;;17.60;99.90;;;;;;5054524;28;20179;-44
2023/07/13 05:19:02;;;;;;;7.57;6.83;;;17.70;99.90;;;;;;5052143;28;20229;-45
2023/07/13 05:21:28;;;;;;;9.57;8.73;;;17.70;99.90;;;;;;5075354;28;20172;-44
2023/07/13 05:23:54;;;;;;;12.00;8.57;;;17.60;99.90;;;;;;5076432;28;20179;-43
2023/07/13 05:26:20;;;;;;;14.03;7.20;;;17.70;99.90;;;;;;5059309;28;20188;-44
2023/07/13 05:28:46;;;;;;;10.50;9.03;;;17.80;99.90;;;;;;5060825;28;20199;-48
2023/07/13 05:31:13;;;;;;;8.70;7.93;;;17.80;99.90;;;;;;5097402;28;20270;-43
2023/07/13 05:33:46;;;;;;;45.37;42.13;;;17.90;99.90;;;;;;5080153;28;20316;-43
2023/07/13 05:36:12;;;;;;;12.87;8.93;;;18.00;99.90;;;;;;5080202;28;20316;-44
2023/07/13 05:38:37;;;;;;;14.60;8.80;;;18.00;99.90;;;;;;5081054;28;20207;-46
2023/07/13 05:41:03;;;;;;;9.73;6.97;;;18.10;99.90;;;;;;5079297;28;20152;-46
2023/07/13 05:43:29;;;;;;;12.53;8.20;;;18.00;99.90;;;;;;5095091;28;20249;-43
2023/07/13 05:45:56;;;;;;;14.93;8.07;;;18.00;99.90;;;;;;5095284;28;20601;-46
2023/07/13 05:48:34;;;;;;;18.70;9.13;;;18.10;99.90;;;;;;5076349;28;20180;-44
2023/07/13 05:51:00;;;;;;;19.23;9.73;;;18.10;99.90;;;;;;5093901;28;20176;-43
2023/07/13 05:53:26;;;;;;;19.40;10.70;;;18.00;99.90;;;;;;5074852;28;20270;-43
2023/07/13 05:55:54;;;;;;;11.27;8.33;;;18.00;99.90;;;;;;5076340;28;20852;-44
2023/07/13 05:58:20;;;;;;;12.10;8.67;;;18.10;99.90;;;;;;5094210;28;20214;-44
2023/07/13 06:00:46;;;;;;;13.63;7.90;;;18.10;99.90;;;;;;5076389;28;20172;-44
2023/07/13 06:03:12;;;;;;;12.30;8.20;;;18.10;99.90;;;;;;5077871;28;20168;-43
2023/07/13 06:05:38;;;;;;;15.07;8.17;;;18.10;99.90;;;;;;5095513;28;20228;-44
2023/07/13 06:08:05;;;;;;;11.40;9.33;;;18.10;99.90;;;;;;5077915;28;20513;-44
2023/07/13 06:10:37;;;;;;;10.13;7.97;;;18.10;99.90;;;;;;5093859;28;20203;-44
2023/07/13 06:13:03;;;;;;;11.13;8.03;;;18.10;99.90;;;;;;5076019;28;20514;-44
2023/07/13 06:15:28;;;;;;;10.30;7.67;;;18.00;99.90;;;;;;5077112;28;20567;-45
2023/07/13 06:17:54;;;;;;;15.50;7.83;;;17.90;99.90;;;;;;5095060;28;20215;-44
2023/07/13 06:20:19;;;;;;;11.10;7.00;;;17.90;99.90;;;;;;5074524;28;20210;-44
2023/07/13 06:22:45;;;;;;;16.77;7.20;;;17.90;99.90;;;;;;5074665;28;20271;-43
2023/07/13 06:25:11;;;;;;;11.93;7.03;;;17.90;99.90;;;;;;5074871;28;20204;-43
2023/07/13 06:27:36;;;;;;;9.03;6.50;;;17.90;99.90;;;;;;5075151;28;20271;-45
2023/07/13 06:30:02;;;;;;;13.73;6.73;;;18.00;99.90;;;;;;5092499;28;20770;-43
2023/07/13 06:32:28;;;;;;;12.27;7.00;;;17.90;99.90;;;;;;5091268;28;20194;-44
2023/07/13 06:34:53;;;;;;;9.77;6.10;;;18.00;99.90;;;;;;5074561;28;20648;-46
2023/07/13 06:37:19;;;;;;;13.10;7.73;;;18.00;99.90;;;;;;5075084;28;20242;-43
2023/07/13 06:39:44;;;;;;;11.27;6.73;;;18.00;99.90;;;;;;5092601;28;20235;-44
2023/07/13 06:42:10;;;;;;;12.07;10.70;;;18.10;99.90;;;;;;5094300;28;20183;-46
2023/07/13 06:44:36;;;;;;;8.60;6.20;;;18.10;99.90;;;;;;5094144;28;20544;-44
2023/07/13 06:47:01;;;;;;;14.00;7.20;;;18.10;99.90;;;;;;5077577;28;20225;-44
2023/07/13 06:49:27;;;;;;;8.30;6.30;;;18.10;99.90;;;;;;5077824;28;20194;-44
2023/07/13 06:51:53;;;;;;;14.87;7.97;;;18.10;99.90;;;;;;5077341;28;20175;-44
2023/07/13 06:54:18;;;;;;;7.53;6.10;;;18.20;99.90;;;;;;5073579;28;20251;-44
2023/07/13 06:56:44;;;;;;;14.63;6.43;;;18.20;99.90;;;;;;5074813;28;20582;-44
2023/07/13 06:59:09;;;;;;;12.50;7.00;;;18.20;99.90;;;;;;5074605;28;20222;-46
2023/07/13 07:01:35;;;;;;;12.63;7.30;;;18.20;99.90;;;;;;5074303;28;20160;-45
2023/07/13 07:04:00;;;;;;;10.17;6.63;;;18.10;99.90;;;;;;5093299;28;20160;-44
2023/07/13 07:06:26;;;;;;;10.87;5.90;;;18.10;99.90;;;;;;5074738;28;20377;-44
2023/07/13 07:08:52;;;;;;;13.03;7.07;;;18.20;99.90;;;;;;5073721;28;20556;-44
2023/07/13 07:11:22;;;;;;;10.13;7.50;;;18.30;99.90;;;;;;5073437;28;20217;-46
2023/07/13 07:13:48;;;;;;;12.57;8.47;;;18.30;99.90;;;;;;5057435;28;20183;-43
2023/07/13 07:16:21;;;;;;;11.73;6.73;;;18.30;99.90;;;;;;5091848;28;20172;-45
2023/07/13 07:18:47;;;;;;;10.57;6.90;;;18.30;99.90;;;;;;5076110;28;20612;-44
2023/07/13 07:21:14;;;;;;;14.93;7.40;;;18.30;99.90;;;;;;5096653;28;20160;-44
2023/07/13 07:23:40;;;;;;;10.07;7.10;;;18.30;99.90;;;;;;5078530;28;20274;-44
2023/07/13 07:26:08;;;;;;;12.43;6.83;;;18.30;99.90;;;;;;5095464;28;20243;-44
2023/07/13 07:28:34;;;;;;;10.17;7.10;;;18.30;99.90;;;;;;5078200;28;20198;-43
2023/07/13 07:31:01;;;;;;;13.30;7.07;;;18.40;99.90;;;;;;5096952;28;20636;-43
2023/07/13 07:33:26;;;;;;;7.10;6.40;;;18.40;99.90;;;;;;5080702;28;20263;-43
2023/07/13 07:35:52;;;;;;;13.83;7.67;;;18.30;99.90;;;;;;5097575;28;20587;-44
2023/07/13 07:38:18;;;;;;;9.40;6.10;;;18.40;99.90;;;;;;5097929;28;20219;-44
2023/07/13 07:40:44;;;;;;;13.03;6.80;;;18.40;99.90;;;;;;5081112;28;20172;-44
2023/07/13 07:43:12;;;;;;;14.97;7.57;;;18.50;99.90;;;;;;5080627;28;20465;-43
2023/07/13 07:45:39;;;;;;;10.77;6.83;;;18.50;99.90;;;;;;5078807;28;20164;-44
2023/07/13 07:48:06;;;;;;;10.40;7.30;;;18.50;99.90;;;;;;5076864;28;20174;-44
2023/07/13 07:50:32;;;;;;;10.10;7.60;;;18.70;99.90;;;;;;5075328;28;20178;-44
2023/07/13 07:52:58;;;;;;;11.90;6.37;;;18.60;99.90;;;;;;5094000;28;20225;-44
2023/07/13 07:55:28;;;;;;;12.10;7.63;;;18.70;99.90;;;;;;5074370;28;20164;-48
2023/07/13 07:57:56;;;;;;;10.30;7.50;;;18.60;99.90;;;;;;5075704;28;20192;-47
2023/07/13 08:00:23;;;;;;;13.17;6.53;;;18.70;99.90;;;;;;5077025;28;20229;-43
2023/07/13 08:02:48;;;;;;;16.77;6.70;;;18.70;99.90;;;;;;5077404;28;20164;-45
2023/07/13 08:05:14;;;;;;;12.47;6.23;;;18.70;99.90;;;;;;5078859;28;20178;-46
2023/07/13 08:07:41;;;;;;;7.80;5.40;;;18.80;99.90;;;;;;5079826;28;20182;-43
2023/07/13 08:10:08;;;;;;;11.83;5.93;;;18.80;99.90;;;;;;5080888;28;20176;-44
2023/07/13 08:12:38;;;;;;;11.43;5.60;;;18.90;99.90;;;;;;5080834;28;20739;-43
2023/07/13 08:15:08;;;;;;;9.80;5.10;;;19.00;99.90;;;;;;5097954;28;20168;-47
2023/07/13 08:17:34;;;;;;;13.13;5.43;;;19.10;99.90;;;;;;5097993;28;20204;-44
2023/07/13 08:20:06;;;;;;;11.57;10.40;;;19.10;99.90;;;;;;5079980;28;20178;-44
2023/07/13 08:22:32;;;;;;;12.07;7.13;;;19.10;99.90;;;;;;5079830;28;20183;-46
2023/07/13 08:24:59;;;;;;;9.83;7.87;;;19.10;99.90;;;;;;5096643;28;20164;-46
2023/07/13 08:27:27;;;;;;;9.03;6.57;;;19.00;99.90;;;;;;5079894;28;20176;-43
2023/07/13 08:29:53;;;;;;;10.87;5.73;;;19.10;99.90;;;;;;5076318;28;20642;-44
2023/07/13 08:32:20;;;;;;;10.90;9.80;;;19.20;99.90;;;;;;5077120;28;20168;-46
2023/07/13 08:34:47;;;;;;;14.07;7.07;;;19.30;99.90;;;;;;5076694;28;20569;-44
2023/07/13 08:37:14;;;;;;;8.63;7.40;;;19.40;99.90;;;;;;5076077;28;20220;-46
2023/07/13 08:39:39;;;;;;;12.03;8.27;;;19.50;99.90;;;;;;5058158;28;20173;-44
2023/07/13 08:42:15;;;;;;;8.57;7.27;;;19.60;99.90;;;;;;5076101;28;20165;-44
2023/07/13 08:44:55;;;;;;;10.57;8.67;;;19.60;99.90;;;;;;5060136;28;20332;-44
2023/07/13 08:47:23;;;;;;;14.03;10.33;;;19.70;99.90;;;;;;5075726;28;20173;-43
2023/07/13 08:49:50;;;;;;;28.73;26.60;;;19.70;99.90;;;;;;5077075;28;20164;-44
2023/07/13 08:52:38;;;;;;;10.63;9.50;;;19.60;99.90;;;;;;5075909;28;20177;-44
2023/07/13 08:55:31;;;;;;;10.57;9.50;;;19.70;99.90;;;;;;5058892;28;20200;-44
2023/07/13 08:58:06;;;;;;;13.83;12.17;;;19.70;99.90;;;;;;5075587;28;20215;-44
2023/07/13 09:00:52;;;;;;;17.50;16.10;;;19.70;99.90;;;;;;5057441;28;20180;-44
2023/07/13 09:03:24;;;;;;;11.50;10.43;;;19.70;99.90;;;;;;5072864;28;20592;-45
2023/07/13 09:05:58;;;;;;;12.17;11.03;;;19.70;99.90;;;;;;5072450;28;20192;-44
2023/07/13 09:08:36;;;;;;;33.43;31.17;;;19.70;99.90;;;;;;5071640;28;20592;-44
2023/07/13 09:11:23;;;;;;;17.73;16.00;;;19.70;99.90;;;;;;5072060;28;20211;-43
2023/07/13 09:13:55;;;;;;;17.60;13.23;;;19.70;99.90;;;;;;5074169;28;20267;-45
2023/07/13 09:16:21;;;;;;;10.87;9.63;;;19.70;99.90;;;;;;5074271;28;20268;-44
2023/07/13 09:18:50;;;;;;;14.53;13.13;;;19.70;99.90;;;;;;5075367;28;20290;-44
2023/07/13 09:21:33;;;;;;;9.90;8.93;;;19.80;99.90;;;;;;5074602;28;20450;-43
2023/07/13 09:24:16;;;;;;;10.33;9.60;;;19.90;99.90;;;;;;5073431;28;20180;-43
2023/07/13 09:26:41;;;;;;;11.17;10.10;;;19.90;99.90;;;;;;5058568;28;20176;-44
2023/07/13 09:29:28;;;;;;;9.43;8.67;;;20.00;99.90;;;;;;5077805;28;20628;-43
2023/07/13 09:31:58;;;;;;;11.27;10.37;;;20.10;99.90;;;;;;5060200;28;20176;-44
2023/07/13 09:34:25;;;;;;;14.00;9.83;;;20.10;99.90;;;;;;5076232;28;20568;-46
2023/07/13 09:36:51;;;;;;;10.83;10.07;;;20.10;99.90;;;;;;5093552;28;20160;-46
2023/07/13 09:39:35;;;;;;;10.50;9.67;;;20.20;99.90;;;;;;5072750;28;20200;-44
2023/07/13 09:42:15;;;;;;;11.07;10.10;;;20.20;99.90;;;;;;5073874;28;20175;-44
2023/07/13 09:44:51;;;;;;;13.80;11.37;;;20.30;99.90;;;;;;5070854;28;20243;-47
2023/07/13 09:47:26;;;;;;;14.80;13.80;;;20.30;99.90;;;;;;5070332;28;20170;-45
2023/07/13 09:50:00;;;;;;;17.13;15.93;;;20.20;99.90;;;;;;5071432;28;20595;-44
2023/07/13 09:52:38;;;;;;;17.47;16.27;;;20.30;99.90;;;;;;5073099;28;20263;-46
2023/07/13 09:55:04;;;;;;;21.53;20.20;;;20.30;99.90;;;;;;5073521;28;20198;-44
2023/07/13 09:57:32;;;;;;;18.63;17.03;;;20.30;99.90;;;;;;5090856;28;20245;-43
2023/07/13 09:59:58;;;;;;;20.63;19.13;;;20.30;99.90;;;;;;5075119;28;20174;-45
2023/07/13 10:02:30;;;;;;;23.23;21.27;;;20.40;99.90;;;;;;5075064;28;20168;-50
2023/07/13 10:05:14;;;;;;;19.10;18.00;;;20.50;99.90;;;;;;5093260;28;20164;-43
2023/07/13 10:07:44;;;;;;;30.97;28.67;;;20.60;99.90;;;;;;5076414;28;20171;-44
2023/07/13 10:10:20;;;;;;;19.70;18.50;;;20.60;99.90;;;;;;5060344;28;20621;-44
2023/07/13 10:12:47;;;;;;;16.53;15.53;;;20.50;99.90;;;;;;5077745;28;20172;-44
2023/07/13 10:15:27;;;;;;;16.90;15.23;;;20.50;99.90;;;;;;5077121;28;20187;-43
2023/07/13 10:17:55;;;;;;;14.93;13.80;;;20.50;99.90;;;;;;5077145;28;20219;-47
2023/07/13 10:20:21;;;;;;;14.67;13.60;;;20.50;99.90;;;;;;5076261;28;20571;-45
2023/07/13 10:23:04;;;;;;;15.07;14.03;;;20.40;99.90;;;;;;5076526;28;20568;-46
2023/07/13 10:25:42;;;;;;;15.80;14.77;;;20.40;99.90;;;;;;5092479;28;20207;-43
2023/07/13 10:28:35;;;;;;;14.30;12.83;;;20.40;99.90;;;;;;5075018;28;20168;-46
2023/07/13 10:31:04;;;;;;;13.37;12.47;;;20.50;99.90;;;;;;5058776;28;20223;-43
2023/07/13 10:33:30;;;;;;;13.27;12.27;;;20.70;99.90;;;;;;5056340;28;20383;-43
2023/07/13 10:36:12;;;;;;;11.50;10.63;;;20.80;99.90;;;;;;5056484;28;20783;-43
2023/07/13 10:38:38;;;;;;;10.23;8.87;;;20.90;99.90;;;;;;5056379;28;20303;-45
2023/07/13 10:41:10;;;;;;;9.17;8.00;;;21.00;99.90;;;;;;5073623;28;20575;-43
2023/07/13 10:43:41;;;;;;;8.73;7.93;;;21.00;99.90;;;;;;5039513;28;20761;-44
2023/07/13 10:46:12;;;;;;;9.03;8.17;;;21.10;99.90;;;;;;5076275;28;20188;-44
2023/07/13 10:48:40;;;;;;;11.30;10.20;;;21.10;99.90;;;;;;5059463;28;20753;-43
2023/07/13 10:51:09;;;;;;;14.77;13.83;;;21.20;99.90;;;;;;5043805;28;20314;-47
2023/07/13 10:53:37;;;;;;;9.07;8.30;;;21.20;99.90;;;;;;5060544;28;20185;-47
2023/07/13 10:56:22;;;;;;;9.43;6.33;;;21.20;99.90;;;;;;5061649;28;20187;-48
2023/07/13 10:59:14;;;;;;;11.73;10.87;;;21.30;99.90;;;;;;5061007;28;20266;-44
2023/07/13 11:02:09;;;;;;;12.73;11.53;;;21.40;99.90;;;;;;5078105;28;20164;-45
2023/07/13 11:04:41;;;;;;;11.47;10.67;;;21.50;99.90;;;;;;5060361;28;20198;-46
2023/07/13 11:07:29;;;;;;;12.67;9.50;;;21.50;99.90;;;;;;5077159;28;20192;-43
2023/07/13 11:09:59;;;;;;;25.83;24.10;;;21.40;99.90;;;;;;5043338;28;20481;-42
2023/07/13 11:12:25;;;;;;;23.60;22.17;;;21.50;99.90;;;;;;5075878;28;20161;-43
2023/07/13 11:14:57;;;;;;;37.23;35.07;;;21.50;99.90;;;;;;5076880;28;20195;-43
2023/07/13 11:17:35;;;;;;;9.73;8.77;;;21.60;99.90;;;;;;5060318;28;20188;-43
2023/07/13 11:20:12;;;;;;;25.07;23.33;;;21.70;99.90;;;;;;5077340;28;20228;-43
2023/07/13 11:23:06;;;;;;;16.90;14.63;;;21.70;99.90;;;;;;5057884;28;20169;-43
2023/07/13 11:25:34;;;;;;;22.47;20.83;;;21.80;99.90;;;;;;5059404;28;20524;-43
2023/07/13 11:28:11;;;;;;;21.07;19.53;;;21.80;99.90;;;;;;5075953;28;20169;-44
2023/07/13 11:30:51;;;;;;;20.43;18.93;;;21.80;99.90;;;;;;5057856;28;20319;-43
2023/07/13 11:33:28;;;;;;;39.23;37.03;;;21.80;99.90;;;;;;5074984;28;20179;-43
2023/07/13 11:35:56;;;;;;;31.97;30.10;;;21.80;99.90;;;;;;5057792;28;20176;-44
2023/07/13 11:38:49;;;;;;;20.37;19.13;;;21.80;99.90;;;;;;5057220;28;20204;-45
2023/07/13 11:41:46;;;;;;;4.87;2.77;;;21.80;99.90;;;;;;5073419;28;20552;-44
2023/07/13 11:44:17;;;;;;;20.53;19.33;;;21.90;99.90;;;;;;5045681;28;20177;-45
2023/07/13 11:46:48;;;;;;;25.53;24.00;;;22.20;99.90;;;;;;5074832;28;20161;-48
2023/07/13 11:49:26;;;;;;;35.20;33.23;;;22.60;99.90;;;;;;5057542;28;20527;-44
2023/07/13 11:51:54;;;;;;;9.80;9.20;;;23.00;99.90;;;;;;5074933;28;20180;-43
2023/07/13 11:54:33;;;;;;;3.80;3.50;;;22.90;99.90;;;;;;5056356;28;20177;-43
2023/07/13 11:57:06;;;;;;;12.03;10.93;;;22.60;99.90;;;;;;5057447;28;20165;-43
2023/07/13 11:59:33;;;;;;;23.73;22.40;;;22.50;99.90;;;;;;5057364;28;20234;-43
2023/07/13 12:01:59;;;;;;;25.47;23.60;;;22.50;99.90;;;;;;5056820;28;20165;-44
2023/07/13 12:04:28;;;;;;;30.87;28.90;;;22.40;99.90;;;;;;5054948;28;20199;-43
2023/07/13 12:07:16;;;;;;;34.43;32.47;;;22.30;99.90;;;;;;5053799;28;20258;-42
2023/07/13 12:09:43;;;;;;;38.80;36.67;;;22.10;99.90;;;;;;5055671;28;20548;-43
2023/07/13 12:12:19;;;;;;;22.03;20.47;;;22.00;99.90;;;;;;5055169;28;20207;-44
2023/07/13 12:14:45;;;;;;;27.30;25.70;;;21.90;99.90;;;;;;5054385;28;20169;-45
2023/07/13 12:17:23;;;;;;;36.50;34.47;;;21.80;99.90;;;;;;5073874;28;20613;-43
2023/07/13 12:19:51;;;;;;;45.43;42.90;;;21.80;99.90;;;;;;5054345;28;20438;-43
2023/07/13 12:22:19;;;;;;;50.40;47.50;;;21.60;99.90;;;;;;5055508;28;20197;-43
2023/07/13 12:24:46;;;;;;;16.73;15.37;;;21.50;99.90;;;;;;5072486;28;20165;-43
2023/07/13 12:27:25;;;;;;;11.13;10.20;;;21.30;99.90;;;;;;5053832;28;20570;-45
2023/07/13 12:30:05;;;;;;;39.00;36.70;;;20.50;99.90;;;;;;5063592;28;20216;-45
2023/07/13 12:32:31;;;;;;;37.30;35.23;;;19.90;99.90;;;;;;5071035;28;20172;-44
2023/07/13 12:35:18;;;;;;;27.77;25.87;;;19.50;99.90;;;;;;5074304;28;20164;-44
2023/07/13 12:37:46;;;;;;;14.43;13.23;;;19.20;99.90;;;;;;5074662;28;20496;-46
2023/07/13 12:40:22;;;;;;;9.73;8.37;;;19.10;99.90;;;;;;5092974;28;20613;-44
2023/07/13 12:42:50;;;;;;;21.73;20.37;;;18.90;99.90;;;;;;5075693;28;20567;-44
2023/07/13 12:45:30;;;;;;;19.77;18.37;;;19.00;99.90;;;;;;5076013;28;20288;-45